Time;durP1;ratioP1;P1;durP2;ratioP2;P2;SDS_P1;SDS_P2;PMS_P1;PMS_P2;Temp;Humidity;BMP_temperature;BMP_pressure;BME280_temperature;BME280_humidity;BME280_pressure;Samples;Min_cycle;Max_cycle;Signal;HPM_P1;HPM_P2
2023/06/06 00:00:18;;;;;;;2.27;2.07;;;23.10;53.50;;;;;;5013951;28;20235;-71
2023/06/06 00:02:48;;;;;;;2.63;2.13;;;23.10;53.80;;;;;;5012231;28;20206;-71
2023/06/06 00:05:16;;;;;;;2.30;2.10;;;23.00;53.70;;;;;;5011367;28;20641;-72
2023/06/06 00:07:45;;;;;;;2.37;2.17;;;23.00;53.90;;;;;;5009954;28;20317;-71
2023/06/06 00:10:14;;;;;;;2.63;2.30;;;23.00;54.00;;;;;;5013721;28;20245;-71
2023/06/06 00:12:43;;;;;;;2.80;2.17;;;23.00;54.20;;;;;;5001045;28;20879;-71
2023/06/06 00:15:11;;;;;;;3.33;2.30;;;23.00;54.20;;;;;;4995585;28;20310;-72
2023/06/06 00:17:39;;;;;;;3.00;2.20;;;23.00;55.00;;;;;;5008319;28;20243;-72
2023/06/06 00:20:08;;;;;;;2.73;2.20;;;22.90;54.50;;;;;;5001984;28;20203;-72
2023/06/06 00:22:36;;;;;;;2.30;2.10;;;22.90;54.60;;;;;;5012920;28;21217;-72
2023/06/06 00:25:04;;;;;;;2.73;2.33;;;22.90;55.30;;;;;;5010962;28;20270;-72
2023/06/06 00:27:31;;;;;;;2.40;2.20;;;22.90;54.80;;;;;;5009606;28;20202;-72
2023/06/06 00:29:58;;;;;;;2.43;2.23;;;22.90;54.90;;;;;;4993959;28;20208;-71
2023/06/06 00:32:26;;;;;;;2.10;2.00;;;22.90;55.00;;;;;;4993405;28;20218;-72
2023/06/06 00:34:53;;;;;;;2.60;2.40;;;22.90;55.20;;;;;;4997927;28;20217;-73
2023/06/06 00:37:21;;;;;;;2.50;2.30;;;22.90;55.30;;;;;;4993393;28;20314;-72
2023/06/06 00:39:48;;;;;;;2.80;2.30;;;22.90;55.70;;;;;;4992419;28;20203;-72
2023/06/06 00:42:15;;;;;;;3.60;2.33;;;22.90;55.70;;;;;;5003922;28;20705;-71
2023/06/06 00:44:41;;;;;;;3.10;2.50;;;22.80;55.60;;;;;;5012660;28;20200;-71
2023/06/06 00:47:10;;;;;;;3.30;2.70;;;22.80;55.90;;;;;;5012592;28;20239;-71
2023/06/06 00:49:38;;;;;;;2.83;2.33;;;22.80;56.10;;;;;;4984413;28;20211;-72
2023/06/06 00:52:05;;;;;;;3.70;2.73;;;22.70;56.10;;;;;;4992752;28;20219;-72
2023/06/06 00:54:35;;;;;;;2.67;2.43;;;22.70;56.20;;;;;;4992885;28;20231;-72
2023/06/06 00:57:03;;;;;;;2.60;2.40;;;22.70;56.40;;;;;;5003573;28;20203;-71
2023/06/06 00:59:30;;;;;;;2.90;2.37;;;22.60;56.40;;;;;;5011872;28;20397;-71
2023/06/06 01:01:58;;;;;;;3.53;2.20;;;22.60;56.60;;;;;;5012258;28;20223;-71
2023/06/06 01:04:26;;;;;;;2.57;2.30;;;22.60;56.60;;;;;;5006590;28;20298;-72
2023/06/06 01:06:53;;;;;;;2.77;2.50;;;22.50;56.70;;;;;;4992590;28;20208;-72
2023/06/06 01:09:20;;;;;;;2.70;2.50;;;22.50;57.00;;;;;;4993692;28;20223;-72
2023/06/06 01:11:58;;;;;;;3.30;3.00;;;22.40;57.20;;;;;;5003297;28;20691;-72
2023/06/06 01:14:31;;;;;;;3.43;2.33;;;22.30;57.50;;;;;;5012835;28;20231;-71
2023/06/06 01:17:02;;;;;;;2.40;2.20;;;22.30;58.10;;;;;;5012401;28;20241;-71
2023/06/06 01:19:32;;;;;;;3.00;2.47;;;22.20;57.60;;;;;;5011856;28;20278;-71
2023/06/06 01:22:00;;;;;;;3.40;2.70;;;22.10;57.80;;;;;;5012350;28;20301;-71
2023/06/06 01:24:28;;;;;;;2.57;2.37;;;22.10;57.90;;;;;;5011916;28;20227;-72
2023/06/06 01:26:55;;;;;;;4.80;2.80;;;22.10;58.00;;;;;;5010740;28;20262;-71
2023/06/06 01:29:22;;;;;;;2.97;2.77;;;22.10;58.10;;;;;;5006582;28;20200;-71
2023/06/06 01:31:57;;;;;;;2.60;2.40;;;22.00;58.20;;;;;;4992422;28;20290;-72
2023/06/06 01:34:31;;;;;;;3.30;2.97;;;22.00;58.50;;;;;;5005179;28;20253;-72
2023/06/06 01:37:07;;;;;;;2.67;2.43;;;22.00;58.80;;;;;;4992642;28;20239;-72
2023/06/06 01:39:37;;;;;;;3.07;2.77;;;21.90;58.80;;;;;;4998515;28;20230;-72
2023/06/06 01:42:05;;;;;;;3.67;2.63;;;21.80;58.80;;;;;;5011881;28;20203;-72
2023/06/06 01:44:33;;;;;;;3.10;2.80;;;21.80;59.00;;;;;;5012313;28;20710;-72
2023/06/06 01:47:01;;;;;;;2.80;2.50;;;21.70;58.90;;;;;;5011912;28;20851;-72
2023/06/06 01:49:29;;;;;;;2.70;2.37;;;21.70;58.90;;;;;;5011024;28;20195;-72
2023/06/06 01:51:56;;;;;;;4.47;2.57;;;21.70;58.90;;;;;;5010900;28;20203;-72
2023/06/06 01:54:24;;;;;;;3.63;2.53;;;21.60;59.00;;;;;;5011183;28;20231;-72
2023/06/06 01:56:51;;;;;;;2.83;2.63;;;21.60;59.10;;;;;;5011888;28;20285;-71
2023/06/06 01:59:18;;;;;;;2.63;2.43;;;21.50;59.20;;;;;;5007491;28;20220;-71
2023/06/06 02:01:45;;;;;;;3.43;2.60;;;21.50;60.00;;;;;;4991826;28;20231;-72
2023/06/06 02:04:12;;;;;;;3.17;2.80;;;21.40;59.50;;;;;;4991984;28;20204;-71
2023/06/06 02:06:40;;;;;;;3.40;3.10;;;21.40;59.70;;;;;;4991684;28;20218;-72
2023/06/06 02:09:07;;;;;;;2.83;2.57;;;21.30;60.00;;;;;;4993244;28;20621;-72
2023/06/06 02:11:36;;;;;;;3.30;3.00;;;21.30;60.20;;;;;;5006195;28;20207;-71
2023/06/06 02:14:03;;;;;;;3.40;3.10;;;21.20;60.50;;;;;;5011385;28;20659;-71
2023/06/06 02:16:31;;;;;;;3.20;2.90;;;21.20;60.80;;;;;;5011569;28;20211;-71
2023/06/06 02:18:58;;;;;;;3.40;3.10;;;21.10;61.00;;;;;;5010583;28;20235;-72
2023/06/06 02:21:26;;;;;;;4.23;3.33;;;21.10;61.10;;;;;;5010975;28;20203;-71
2023/06/06 02:23:52;;;;;;;4.67;3.27;;;21.10;61.30;;;;;;5011551;28;20235;-71
2023/06/06 02:26:21;;;;;;;4.67;3.40;;;21.00;61.30;;;;;;5011425;28;20237;-71
2023/06/06 02:28:50;;;;;;;3.00;2.70;;;21.00;61.50;;;;;;5011359;28;20210;-72
2023/06/06 02:31:17;;;;;;;4.63;3.33;;;21.00;61.70;;;;;;5010529;28;20547;-71
2023/06/06 02:33:44;;;;;;;3.47;3.17;;;20.90;62.60;;;;;;5000678;28;20228;-72
2023/06/06 02:36:14;;;;;;;4.03;3.63;;;20.90;62.10;;;;;;5009114;28;20214;-71
2023/06/06 02:38:41;;;;;;;3.40;3.10;;;20.80;62.30;;;;;;5010988;28;20235;-71
2023/06/06 02:41:08;;;;;;;3.40;3.10;;;20.80;62.80;;;;;;5008052;28;20207;-73
2023/06/06 02:43:36;;;;;;;5.63;3.90;;;20.70;62.80;;;;;;5011283;28;20251;-72
2023/06/06 02:46:05;;;;;;;3.57;3.10;;;20.70;62.90;;;;;;5011282;28;20211;-72
2023/06/06 02:48:31;;;;;;;3.93;3.07;;;20.60;63.20;;;;;;5010957;28;20199;-73
2023/06/06 02:50:59;;;;;;;5.53;3.47;;;20.60;63.20;;;;;;4994413;28;20214;-72
2023/06/06 02:53:27;;;;;;;4.20;3.40;;;20.60;63.40;;;;;;4991777;28;20203;-72
2023/06/06 02:55:54;;;;;;;5.67;3.33;;;20.50;63.40;;;;;;5006835;28;20211;-72
2023/06/06 02:58:28;;;;;;;3.60;3.30;;;20.50;63.70;;;;;;5011165;28;20227;-72
2023/06/06 03:00:56;;;;;;;3.60;3.17;;;20.50;64.20;;;;;;5010080;28;20202;-72
2023/06/06 03:03:25;;;;;;;3.90;3.27;;;20.40;63.90;;;;;;5012337;28;20231;-72
2023/06/06 03:05:53;;;;;;;4.47;3.27;;;20.40;64.00;;;;;;5010765;28;20203;-71
2023/06/06 03:08:20;;;;;;;4.10;3.50;;;20.40;64.20;;;;;;5015178;28;20221;-72
2023/06/06 03:10:47;;;;;;;4.97;3.60;;;20.30;64.50;;;;;;5013819;28;20241;-71
2023/06/06 03:13:14;;;;;;;3.43;3.13;;;20.30;64.60;;;;;;5014636;28;20203;-72
2023/06/06 03:15:41;;;;;;;5.33;3.83;;;20.30;64.70;;;;;;5014794;28;20257;-72
2023/06/06 03:18:09;;;;;;;4.70;3.83;;;20.20;64.80;;;;;;5014706;28;20697;-72
2023/06/06 03:20:40;;;;;;;5.67;3.80;;;20.20;65.00;;;;;;5000203;28;20231;-71
2023/06/06 03:23:07;;;;;;;3.70;3.40;;;20.10;65.10;;;;;;4995223;28;20216;-71
2023/06/06 03:25:34;;;;;;;4.00;3.60;;;20.10;65.20;;;;;;5011399;28;20211;-71
2023/06/06 03:28:01;;;;;;;4.53;3.60;;;20.10;65.60;;;;;;5013403;28;20230;-71
2023/06/06 03:30:28;;;;;;;4.20;3.80;;;20.00;65.70;;;;;;5012943;28;20205;-72
2023/06/06 03:32:57;;;;;;;4.13;3.70;;;20.00;65.70;;;;;;5014260;28;20543;-72
2023/06/06 03:35:24;;;;;;;3.90;3.60;;;20.00;66.50;;;;;;5002345;28;20208;-72
2023/06/06 03:37:55;;;;;;;4.23;3.83;;;20.00;65.80;;;;;;4994941;28;20203;-71
2023/06/06 03:40:22;;;;;;;4.30;3.87;;;20.00;65.80;;;;;;5011161;28;20199;-72
2023/06/06 03:42:50;;;;;;;5.57;3.97;;;20.00;65.80;;;;;;5014197;28;20207;-72
2023/06/06 03:45:17;;;;;;;4.33;3.93;;;20.00;66.00;;;;;;5002159;28;21083;-71
2023/06/06 03:47:44;;;;;;;4.60;4.20;;;20.00;66.10;;;;;;5009097;28;20258;-72
2023/06/06 03:50:11;;;;;;;4.70;3.67;;;20.00;66.30;;;;;;5005661;28;20583;-72
2023/06/06 03:52:39;;;;;;;5.40;4.07;;;20.00;66.40;;;;;;5010341;28;20207;-72
2023/06/06 03:55:09;;;;;;;3.90;3.57;;;20.00;66.50;;;;;;5009657;28;20550;-72
2023/06/06 03:57:37;;;;;;;4.40;4.00;;;19.90;66.50;;;;;;4994388;28;20212;-72
2023/06/06 04:00:10;;;;;;;4.40;4.10;;;20.00;66.90;;;;;;4994700;28;20228;-72
2023/06/06 04:02:37;;;;;;;6.90;4.30;;;20.00;67.00;;;;;;5003991;28;20274;-72
2023/06/06 04:05:05;;;;;;;5.67;4.27;;;19.90;67.00;;;;;;4994458;28;20227;-72
2023/06/06 04:07:32;;;;;;;4.87;4.17;;;20.00;67.20;;;;;;4994125;28;20273;-72
2023/06/06 04:09:59;;;;;;;4.60;4.00;;;19.90;67.10;;;;;;4994691;28;20568;-72
2023/06/06 04:12:28;;;;;;;4.77;4.37;;;20.00;67.30;;;;;;5007242;28;20223;-71
2023/06/06 04:14:55;;;;;;;5.10;4.47;;;20.00;67.40;;;;;;5013873;28;20235;-71
2023/06/06 04:17:23;;;;;;;4.60;4.03;;;20.00;67.40;;;;;;5014361;28;20207;-72
2023/06/06 04:19:50;;;;;;;4.53;4.13;;;20.00;67.50;;;;;;5008373;28;20216;-72
2023/06/06 04:22:19;;;;;;;7.93;4.37;;;20.00;68.30;;;;;;5002049;28;20192;-72
2023/06/06 04:25:20;;;;;;;5.73;4.43;;;20.00;67.60;;;;;;4995152;28;20274;-72
2023/06/06 04:27:48;;;;;;;5.50;4.33;;;20.00;68.00;;;;;;4994936;28;20246;-71
2023/06/06 04:30:22;;;;;;;5.60;4.00;;;20.00;67.50;;;;;;4994989;28;20200;-71
2023/06/06 04:32:49;;;;;;;6.20;3.93;;;20.00;67.60;;;;;;5000483;28;20205;-72
2023/06/06 04:35:16;;;;;;;4.17;3.77;;;20.00;67.60;;;;;;5014455;28;20210;-71
2023/06/06 04:37:43;;;;;;;5.60;4.37;;;20.10;68.00;;;;;;5014311;28;20774;-72
2023/06/06 04:40:11;;;;;;;4.63;4.20;;;20.10;68.20;;;;;;5007155;28;20231;-72
2023/06/06 04:42:40;;;;;;;4.73;4.23;;;20.10;68.20;;;;;;4999196;28;20204;-72
2023/06/06 04:45:10;;;;;;;7.03;4.23;;;20.10;67.80;;;;;;5013326;28;20920;-73
2023/06/06 04:47:40;;;;;;;5.97;4.27;;;20.20;68.30;;;;;;5013998;28;20334;-72
2023/06/06 04:50:08;;;;;;;8.17;4.23;;;20.20;68.10;;;;;;5007061;28;20668;-71
2023/06/06 04:52:35;;;;;;;8.87;5.00;;;20.20;68.20;;;;;;4993901;28;20222;-72
2023/06/06 04:55:04;;;;;;;11.63;6.23;;;20.20;68.20;;;;;;4994017;28;20234;-72
2023/06/06 04:57:32;;;;;;;8.20;5.40;;;20.30;68.60;;;;;;5011675;28;20196;-71
2023/06/06 05:00:00;;;;;;;9.47;5.10;;;20.30;68.40;;;;;;5008888;28;20232;-71
2023/06/06 05:02:29;;;;;;;13.30;6.13;;;20.30;67.90;;;;;;5007855;28;20249;-72
2023/06/06 05:04:58;;;;;;;10.23;6.00;;;20.40;68.30;;;;;;5013911;28;20215;-72
2023/06/06 05:07:25;;;;;;;7.50;5.23;;;20.40;68.90;;;;;;5013877;28;20238;-72
2023/06/06 05:09:54;;;;;;;4.27;3.87;;;20.50;68.00;;;;;;5012067;28;20262;-72
2023/06/06 05:12:21;;;;;;;5.07;3.80;;;20.50;68.20;;;;;;5012607;28;20206;-72
2023/06/06 05:14:48;;;;;;;4.27;3.87;;;20.50;68.80;;;;;;5013382;28;20233;-72
2023/06/06 05:17:18;;;;;;;4.80;3.80;;;20.60;68.30;;;;;;5013237;28;20239;-71
2023/06/06 05:19:46;;;;;;;4.20;3.80;;;20.60;68.20;;;;;;5012201;28;20259;-71
2023/06/06 05:22:14;;;;;;;5.20;3.83;;;20.70;68.00;;;;;;4993234;28;20664;-71
2023/06/06 05:24:41;;;;;;;6.23;3.97;;;20.80;68.20;;;;;;4993374;28;20323;-72
2023/06/06 05:27:08;;;;;;;4.37;3.97;;;20.80;68.40;;;;;;4993177;28;20641;-71
2023/06/06 05:29:36;;;;;;;5.00;4.03;;;20.90;68.40;;;;;;4994479;28;20204;-71
2023/06/06 05:32:03;;;;;;;4.50;3.93;;;20.90;67.70;;;;;;4996638;28;20226;-71
2023/06/06 05:34:30;;;;;;;4.67;3.67;;;21.00;68.20;;;;;;4997416;28;20701;-71
2023/06/06 05:36:58;;;;;;;4.10;3.70;;;21.00;67.60;;;;;;5013100;28;20207;-72
2023/06/06 05:39:25;;;;;;;5.47;3.63;;;21.10;67.10;;;;;;5012785;28;20262;-72
2023/06/06 05:41:54;;;;;;;4.50;4.10;;;21.10;67.00;;;;;;5003522;28;20214;-72
2023/06/06 05:44:21;;;;;;;4.00;3.50;;;21.20;66.90;;;;;;4999453;28;20219;-72
2023/06/06 05:46:53;;;;;;;4.10;3.70;;;21.20;67.00;;;;;;4999804;28;20868;-71
2023/06/06 05:49:20;;;;;;;5.50;3.93;;;21.30;66.60;;;;;;4996279;28;20196;-71
2023/06/06 05:51:46;;;;;;;4.30;3.83;;;21.30;66.20;;;;;;5007252;28;20563;-72
2023/06/06 05:54:16;;;;;;;4.13;3.67;;;21.40;66.40;;;;;;4996965;28;20286;-71
2023/06/06 05:56:43;;;;;;;4.30;3.70;;;21.50;65.80;;;;;;5008161;28;20211;-72
2023/06/06 05:59:10;;;;;;;4.43;3.70;;;21.60;65.70;;;;;;5007577;28;20225;-71
2023/06/06 06:01:39;;;;;;;3.93;3.53;;;21.60;65.60;;;;;;5001942;28;20205;-71
2023/06/06 06:04:07;;;;;;;5.70;4.00;;;21.70;65.60;;;;;;5012474;28;20222;-72
2023/06/06 06:06:35;;;;;;;4.30;3.50;;;21.80;64.90;;;;;;5007106;28;20226;-72
2023/06/06 06:09:03;;;;;;;4.47;3.40;;;21.80;64.90;;;;;;4993005;28;20204;-72
2023/06/06 06:11:31;;;;;;;5.37;3.70;;;21.90;64.50;;;;;;4991552;28;20250;-72
2023/06/06 06:13:58;;;;;;;3.97;3.43;;;22.00;64.30;;;;;;4992540;28;20211;-72
2023/06/06 06:16:25;;;;;;;5.87;3.80;;;22.10;63.00;;;;;;4995968;28;20206;-72
2023/06/06 06:18:52;;;;;;;3.80;3.40;;;22.00;63.20;;;;;;5011686;28;20778;-72
2023/06/06 06:21:21;;;;;;;4.17;3.20;;;22.10;63.10;;;;;;5011120;28;20222;-72
2023/06/06 06:23:50;;;;;;;4.27;3.67;;;22.20;62.60;;;;;;5011582;28;20218;-72
2023/06/06 06:26:17;;;;;;;3.10;2.80;;;22.20;62.10;;;;;;5009106;28;20680;-72
2023/06/06 06:28:46;;;;;;;3.80;3.50;;;22.30;62.40;;;;;;5004854;28;20211;-72
2023/06/06 06:31:13;;;;;;;3.67;3.23;;;22.40;62.40;;;;;;5010882;28;20695;-72
2023/06/06 06:33:40;;;;;;;4.93;3.67;;;22.40;61.90;;;;;;5011561;28;20207;-72
2023/06/06 06:36:07;;;;;;;3.77;3.20;;;22.50;61.00;;;;;;4994137;28;20206;-72
2023/06/06 06:38:36;;;;;;;3.60;3.13;;;22.60;60.50;;;;;;5010382;28;20238;-71
2023/06/06 06:41:03;;;;;;;5.50;3.17;;;22.60;60.10;;;;;;5014755;28;20226;-72
2023/06/06 06:43:30;;;;;;;4.03;3.50;;;22.70;59.70;;;;;;5015489;28;20238;-72
2023/06/06 06:45:58;;;;;;;3.93;3.57;;;22.70;60.50;;;;;;5015046;28;20637;-72
2023/06/06 06:48:25;;;;;;;6.10;4.17;;;22.80;60.10;;;;;;4998885;28;20306;-72
2023/06/06 06:50:52;;;;;;;3.93;3.33;;;22.90;60.40;;;;;;4994833;28;20208;-72
2023/06/06 06:53:23;;;;;;;3.60;3.30;;;22.90;60.10;;;;;;4995087;28;20226;-72
2023/06/06 06:55:52;;;;;;;3.73;3.37;;;23.00;59.80;;;;;;4994824;28;20217;-72
2023/06/06 06:58:25;;;;;;;3.50;3.20;;;23.10;59.90;;;;;;5009805;28;20862;-72
2023/06/06 07:00:53;;;;;;;3.50;2.90;;;23.20;60.10;;;;;;5025138;28;20241;-71
2023/06/06 07:03:21;;;;;;;3.40;3.10;;;23.30;59.80;;;;;;5027719;28;20238;-71
2023/06/06 07:05:48;;;;;;;3.93;2.93;;;23.30;58.50;;;;;;5026969;28;20683;-71
2023/06/06 07:08:15;;;;;;;6.00;3.70;;;23.40;58.70;;;;;;5015009;28;20235;-71
2023/06/06 07:10:43;;;;;;;3.70;3.30;;;23.50;59.10;;;;;;5003689;28;20237;-71
2023/06/06 07:13:10;;;;;;;4.13;3.00;;;23.60;59.40;;;;;;4997493;28;20226;-71
2023/06/06 07:15:37;;;;;;;5.03;3.00;;;23.70;59.40;;;;;;4994610;28;20259;-72
2023/06/06 07:18:04;;;;;;;3.33;3.03;;;23.80;59.10;;;;;;5007146;28;20214;-71
2023/06/06 07:20:33;;;;;;;3.53;3.20;;;23.90;58.00;;;;;;4999844;28;20227;-71
2023/06/06 07:23:00;;;;;;;3.73;2.80;;;24.00;58.50;;;;;;5009821;28;20234;-72
2023/06/06 07:25:27;;;;;;;6.03;3.43;;;24.10;58.50;;;;;;5014188;28;20203;-71
2023/06/06 07:27:55;;;;;;;3.37;3.07;;;24.20;58.30;;;;;;5003439;28;20207;-71
2023/06/06 07:30:21;;;;;;;3.13;2.83;;;24.20;57.20;;;;;;4995000;28;20231;-71
2023/06/06 07:32:49;;;;;;;3.33;3.03;;;24.30;57.20;;;;;;4994113;28;20212;-72
2023/06/06 07:35:19;;;;;;;3.53;3.23;;;24.40;56.10;;;;;;5004731;28;20234;-71
2023/06/06 07:37:48;;;;;;;3.60;2.90;;;24.50;55.50;;;;;;5004541;28;20199;-72
2023/06/06 07:40:16;;;;;;;3.73;3.33;;;24.60;56.00;;;;;;4994202;28;20234;-71
2023/06/06 07:42:44;;;;;;;4.20;3.20;;;24.70;55.90;;;;;;4994032;28;20243;-71
2023/06/06 07:45:11;;;;;;;3.63;3.00;;;24.80;54.80;;;;;;4994202;28;20211;-72
2023/06/06 07:47:39;;;;;;;3.80;3.40;;;24.90;55.30;;;;;;5001909;28;20219;-71
2023/06/06 07:50:06;;;;;;;3.30;3.07;;;24.90;55.90;;;;;;5013304;28;20291;-72
2023/06/06 07:52:34;;;;;;;4.63;3.43;;;25.00;55.20;;;;;;5013476;28;20218;-71
2023/06/06 07:55:03;;;;;;;3.63;2.97;;;25.10;53.90;;;;;;5013613;28;20235;-72
2023/06/06 07:57:31;;;;;;;3.70;3.40;;;25.20;53.50;;;;;;5006983;28;20215;-71
2023/06/06 07:59:58;;;;;;;4.30;3.40;;;25.30;53.30;;;;;;4993999;28;20246;-71
2023/06/06 08:02:25;;;;;;;3.80;3.40;;;25.40;54.00;;;;;;4993843;28;20234;-71
2023/06/06 08:04:52;;;;;;;4.47;3.63;;;25.40;53.40;;;;;;4994176;28;20219;-71
2023/06/06 08:07:19;;;;;;;3.83;3.50;;;25.50;53.40;;;;;;4998690;28;20262;-71
2023/06/06 08:09:46;;;;;;;4.73;3.30;;;25.60;52.90;;;;;;5013100;28;20210;-71
2023/06/06 08:12:15;;;;;;;3.97;3.40;;;25.70;53.10;;;;;;5013525;28;20203;-72
2023/06/06 08:14:42;;;;;;;3.40;3.10;;;25.80;53.00;;;;;;5013445;28;20232;-70
2023/06/06 08:17:09;;;;;;;6.23;3.43;;;25.90;52.50;;;;;;5009758;28;20242;-72
2023/06/06 08:19:36;;;;;;;3.97;3.37;;;25.90;52.10;;;;;;4993818;28;20313;-70
2023/06/06 08:22:03;;;;;;;3.70;3.00;;;26.00;52.30;;;;;;4993188;28;20337;-71
2023/06/06 08:24:30;;;;;;;4.30;3.30;;;26.20;52.30;;;;;;4994079;28;20315;-71
2023/06/06 08:26:57;;;;;;;3.53;3.23;;;26.20;52.10;;;;;;4995261;28;20243;-72
2023/06/06 08:29:27;;;;;;;4.50;3.20;;;26.30;52.10;;;;;;5013060;28;20677;-71
2023/06/06 08:31:54;;;;;;;4.33;2.87;;;26.40;51.50;;;;;;5012859;28;20296;-71
2023/06/06 08:34:21;;;;;;;3.37;3.07;;;26.50;51.30;;;;;;5010241;28;20390;-71
2023/06/06 08:36:48;;;;;;;4.63;3.17;;;26.50;50.30;;;;;;4993439;28;20211;-72
2023/06/06 08:39:16;;;;;;;4.03;3.30;;;26.60;49.60;;;;;;5012987;28;20238;-71
2023/06/06 08:41:50;;;;;;;3.70;3.20;;;26.70;49.70;;;;;;5012443;28;20761;-71
2023/06/06 08:44:20;;;;;;;3.17;2.87;;;26.70;50.50;;;;;;5013187;28;20577;-71
2023/06/06 08:46:52;;;;;;;3.20;2.97;;;26.80;51.50;;;;;;5012618;28;20212;-72
2023/06/06 08:49:20;;;;;;;3.60;2.93;;;26.90;49.90;;;;;;5008422;28;20230;-72
2023/06/06 08:51:49;;;;;;;3.13;2.83;;;26.90;48.60;;;;;;5012154;28;20207;-71
2023/06/06 08:54:17;;;;;;;3.23;2.93;;;27.00;48.40;;;;;;5013000;28;20207;-71
2023/06/06 08:56:44;;;;;;;2.87;2.67;;;27.10;47.50;;;;;;5013042;28;20594;-71
2023/06/06 08:59:12;;;;;;;3.43;2.97;;;27.10;47.20;;;;;;4993549;28;20232;-71
2023/06/06 09:01:40;;;;;;;2.93;2.70;;;27.20;47.50;;;;;;4991505;28;20225;-72
2023/06/06 09:04:08;;;;;;;2.80;2.53;;;27.30;45.90;;;;;;4993199;28;20206;-71
2023/06/06 09:06:40;;;;;;;4.43;3.03;;;27.30;45.90;;;;;;4992805;28;20295;-72
2023/06/06 09:09:09;;;;;;;4.23;2.80;;;27.40;45.90;;;;;;5011201;28;20228;-71
2023/06/06 09:11:36;;;;;;;3.37;2.80;;;27.50;46.00;;;;;;5012312;28;20730;-71
2023/06/06 09:14:04;;;;;;;3.93;2.50;;;27.60;46.50;;;;;;5012519;28;20866;-72
2023/06/06 09:16:32;;;;;;;4.07;3.03;;;27.60;45.80;;;;;;5012485;28;20279;-72
2023/06/06 09:19:01;;;;;;;3.33;2.80;;;27.70;45.10;;;;;;4995572;28;20226;-71
2023/06/06 09:21:32;;;;;;;3.60;2.93;;;27.80;44.50;;;;;;4991969;28;20232;-72
2023/06/06 09:23:59;;;;;;;3.10;2.60;;;27.90;44.40;;;;;;4992779;28;20205;-71
2023/06/06 09:26:26;;;;;;;3.13;2.70;;;28.00;42.60;;;;;;4992671;28;20598;-72
2023/06/06 09:28:55;;;;;;;2.80;2.40;;;28.00;42.40;;;;;;5007967;28;20217;-72
2023/06/06 09:31:26;;;;;;;3.17;2.87;;;28.00;42.20;;;;;;5011892;28;20231;-71
2023/06/06 09:33:54;;;;;;;3.67;2.70;;;28.10;41.10;;;;;;5012034;28;20603;-72
2023/06/06 09:36:22;;;;;;;4.27;3.20;;;28.00;41.10;;;;;;4992820;28;20210;-72
2023/06/06 09:38:52;;;;;;;3.53;2.80;;;28.00;41.70;;;;;;5007243;28;20206;-72
2023/06/06 09:41:19;;;;;;;4.03;2.80;;;28.00;42.30;;;;;;5011564;28;20220;-71
2023/06/06 09:43:46;;;;;;;4.70;3.13;;;28.10;42.40;;;;;;5012009;28;20256;-72
2023/06/06 09:46:16;;;;;;;3.07;2.67;;;28.20;42.70;;;;;;5012058;28;20214;-70
2023/06/06 09:48:44;;;;;;;3.07;2.77;;;28.30;42.50;;;;;;4998156;28;20203;-71
2023/06/06 09:51:12;;;;;;;4.07;3.27;;;28.40;41.20;;;;;;4991764;28;20259;-72
2023/06/06 09:53:40;;;;;;;4.13;3.73;;;28.40;42.20;;;;;;4992145;28;20207;-73
2023/06/06 09:56:09;;;;;;;4.33;2.73;;;28.50;43.10;;;;;;4992500;28;20233;-72
2023/06/06 09:58:36;;;;;;;4.23;3.00;;;28.50;42.10;;;;;;5004706;28;20203;-71
2023/06/06 10:01:04;;;;;;;5.33;2.97;;;28.60;43.10;;;;;;5011607;28;20230;-72
2023/06/06 10:03:32;;;;;;;2.97;2.70;;;28.80;42.50;;;;;;5011279;28;20778;-72
2023/06/06 10:05:59;;;;;;;3.13;2.83;;;28.80;42.50;;;;;;5011712;28;20209;-72
2023/06/06 10:08:28;;;;;;;3.67;2.90;;;28.70;40.90;;;;;;5000405;28;20304;-71
2023/06/06 10:10:56;;;;;;;3.90;3.33;;;28.80;43.00;;;;;;4991570;28;20266;-70
2023/06/06 10:13:25;;;;;;;5.53;3.30;;;28.90;42.50;;;;;;4991410;28;20660;-70
2023/06/06 10:15:52;;;;;;;4.23;3.03;;;29.00;42.10;;;;;;4991715;28;20330;-71
2023/06/06 10:18:19;;;;;;;3.70;3.30;;;29.10;42.10;;;;;;5001501;28;20198;-72
2023/06/06 10:20:47;;;;;;;5.23;3.07;;;29.20;42.70;;;;;;5011090;28;20225;-71
2023/06/06 10:23:14;;;;;;;3.80;3.40;;;29.30;42.70;;;;;;5011009;28;20245;-71
2023/06/06 10:25:42;;;;;;;3.50;3.20;;;29.40;42.20;;;;;;5011423;28;20218;-72
2023/06/06 10:28:15;;;;;;;4.53;3.10;;;29.40;42.30;;;;;;5002580;28;20200;-71
2023/06/06 10:30:57;;;;;;;5.07;3.40;;;29.60;42.50;;;;;;4991764;28;20259;-72
2023/06/06 10:33:33;;;;;;;3.50;3.20;;;29.60;41.20;;;;;;4991087;28;20218;-71
2023/06/06 10:36:03;;;;;;;3.40;2.97;;;29.70;42.00;;;;;;5007912;28;20226;-72
2023/06/06 10:38:30;;;;;;;4.10;3.20;;;29.80;43.00;;;;;;5000181;28;20203;-71
2023/06/06 10:40:59;;;;;;;4.50;3.30;;;29.90;43.10;;;;;;4991405;28;20725;-71
2023/06/06 10:43:51;;;;;;;4.67;3.60;;;30.00;42.50;;;;;;4991301;28;20223;-71
2023/06/06 10:46:19;;;;;;;6.13;3.43;;;30.10;41.60;;;;;;4991759;28;20219;-71
2023/06/06 10:48:54;;;;;;;3.77;3.43;;;30.10;40.90;;;;;;5004262;28;20647;-73
2023/06/06 10:51:35;;;;;;;3.77;3.30;;;30.20;40.60;;;;;;5010985;28;20217;-72
2023/06/06 10:54:15;;;;;;;4.00;3.40;;;30.30;40.00;;;;;;5011039;28;20218;-72
2023/06/06 10:56:45;;;;;;;4.70;3.50;;;30.20;40.50;;;;;;5011008;28;20210;-73
2023/06/06 10:59:13;;;;;;;3.60;3.27;;;30.30;40.50;;;;;;4994312;28;20843;-71
2023/06/06 11:01:44;;;;;;;3.93;3.23;;;30.40;39.80;;;;;;4990426;28;20238;-71
2023/06/06 11:04:21;;;;;;;4.03;3.57;;;30.40;40.60;;;;;;4991243;28;20219;-73
2023/06/06 11:06:49;;;;;;;5.33;3.57;;;30.50;40.10;;;;;;4991452;28;20215;-71
2023/06/06 11:09:22;;;;;;;5.27;3.67;;;30.60;40.10;;;;;;4999467;28;20542;-72
2023/06/06 11:11:49;;;;;;;4.13;3.20;;;30.60;40.00;;;;;;4991244;28;20258;-71
2023/06/06 11:14:21;;;;;;;3.83;3.37;;;30.70;40.10;;;;;;4991374;28;20286;-72
2023/06/06 11:17:02;;;;;;;4.50;3.27;;;30.70;40.00;;;;;;4991114;28;20594;-72
2023/06/06 11:19:37;;;;;;;4.03;3.53;;;30.80;40.00;;;;;;5004934;28;20560;-72
2023/06/06 11:22:04;;;;;;;4.40;3.43;;;30.80;40.10;;;;;;5010515;28;20266;-72
2023/06/06 11:24:36;;;;;;;3.57;3.23;;;30.90;40.00;;;;;;5012276;28;20242;-71
2023/06/06 11:27:06;;;;;;;3.50;3.20;;;30.90;39.60;;;;;;5014719;28;20582;-71
2023/06/06 11:29:34;;;;;;;4.30;3.30;;;30.90;39.40;;;;;;4995511;28;20270;-71
2023/06/06 11:32:03;;;;;;;3.60;3.30;;;30.90;40.20;;;;;;4994220;28;20207;-72
2023/06/06 11:34:39;;;;;;;3.50;3.20;;;31.00;39.70;;;;;;5003294;28;20203;-72
2023/06/06 11:37:07;;;;;;;3.60;3.30;;;31.00;39.30;;;;;;4994811;28;20294;-72
2023/06/06 11:39:34;;;;;;;3.83;3.47;;;31.00;38.20;;;;;;4994721;28;20232;-71
2023/06/06 11:42:01;;;;;;;3.67;2.90;;;30.90;38.00;;;;;;4994597;28;20212;-72
2023/06/06 11:44:33;;;;;;;3.93;3.23;;;30.90;39.20;;;;;;5005959;28;20249;-71
2023/06/06 11:47:02;;;;;;;4.30;3.60;;;31.00;38.40;;;;;;5013823;28;20235;-71
2023/06/06 11:49:43;;;;;;;3.80;3.33;;;31.10;37.70;;;;;;5014367;28;20207;-72
2023/06/06 11:52:11;;;;;;;3.70;3.40;;;31.00;37.00;;;;;;5013861;28;20209;-71
2023/06/06 11:54:38;;;;;;;4.50;3.23;;;31.00;38.60;;;;;;5001246;28;20215;-73
2023/06/06 11:57:08;;;;;;;4.07;3.67;;;31.10;38.10;;;;;;4994262;28;20211;-70
2023/06/06 11:59:35;;;;;;;3.40;3.10;;;31.10;36.60;;;;;;4994082;28;20243;-73
2023/06/06 12:02:02;;;;;;;3.67;3.30;;;31.10;37.60;;;;;;4993780;28;20231;-71
2023/06/06 12:04:31;;;;;;;3.77;3.47;;;31.20;38.00;;;;;;5005275;28;20203;-71
2023/06/06 12:07:03;;;;;;;3.63;3.33;;;31.30;37.90;;;;;;5006649;28;20232;-71
2023/06/06 12:09:30;;;;;;;4.03;3.30;;;31.40;38.20;;;;;;4994414;28;20207;-72
2023/06/06 12:11:59;;;;;;;3.60;3.30;;;31.50;37.40;;;;;;4993740;28;20231;-72
2023/06/06 12:14:28;;;;;;;4.30;3.83;;;31.60;37.70;;;;;;4993959;28;20231;-72
2023/06/06 12:17:03;;;;;;;4.70;3.50;;;31.60;36.30;;;;;;4994370;28;20580;-71
2023/06/06 12:19:32;;;;;;;5.77;3.37;;;31.60;36.10;;;;;;4994121;28;20253;-72
2023/06/06 12:21:59;;;;;;;3.10;2.80;;;31.60;35.90;;;;;;4993698;28;20271;-72
2023/06/06 12:24:28;;;;;;;3.10;2.90;;;31.60;37.40;;;;;;4997591;28;20299;-72
2023/06/06 12:26:59;;;;;;;3.67;3.33;;;31.80;36.90;;;;;;5007312;28;20297;-71
2023/06/06 12:29:30;;;;;;;5.70;3.10;;;31.90;37.00;;;;;;4993612;28;20207;-71
2023/06/06 12:32:19;;;;;;;6.17;3.17;;;32.00;37.30;;;;;;4993324;28;20835;-71
2023/06/06 12:34:49;;;;;;;3.93;3.60;;;32.00;36.70;;;;;;4998196;28;20205;-73
2023/06/06 12:37:16;;;;;;;4.93;4.00;;;32.00;36.30;;;;;;5003806;28;20215;-71
2023/06/06 12:39:43;;;;;;;3.80;3.50;;;32.00;36.50;;;;;;4993392;28;20232;-71
2023/06/06 12:42:15;;;;;;;4.27;3.30;;;31.90;36.30;;;;;;4992982;28;20575;-71
2023/06/06 12:44:42;;;;;;;4.40;3.90;;;31.70;36.70;;;;;;4993494;28;20208;-72
2023/06/06 12:47:11;;;;;;;3.57;3.27;;;31.70;37.20;;;;;;5000897;28;20298;-71
2023/06/06 12:49:39;;;;;;;4.10;3.20;;;31.60;37.90;;;;;;5013238;28;20207;-71
2023/06/06 12:52:08;;;;;;;6.77;3.80;;;31.50;38.00;;;;;;5012333;28;20273;-70